createdAt,value
2022-08-18T00:01:23.701Z,14.60
2022-08-18T00:05:16.702Z,14.77
2022-08-18T00:08:57.250Z,16.08
2022-08-18T00:12:57.118Z,13.77
2022-08-18T00:16:45.718Z,14.17
2022-08-18T00:20:31.778Z,13.60
2022-08-18T00:24:16.697Z,16.85
2022-08-18T00:28:02.764Z,14.45
2022-08-18T00:31:47.678Z,16.83
2022-08-18T00:35:45.714Z,18.20
2022-08-18T00:39:34.289Z,16.23
2022-08-18T00:43:55.716Z,15.10
2022-08-18T00:47:42.885Z,18.15
2022-08-18T00:51:47.743Z,16.23
2022-08-18T00:55:35.706Z,14.23
2022-08-18T00:59:30.721Z,15.88
2022-08-18T01:03:24.580Z,14.82
2022-08-18T01:07:33.801Z,17.45
2022-08-18T01:11:21.705Z,17.97
2022-08-18T01:15:28.731Z,15.20
2022-08-18T01:19:32.723Z,15.65
2022-08-18T01:23:26.864Z,17.75
2022-08-18T01:27:11.841Z,17.00
2022-08-18T01:31:05.705Z,15.80
2022-08-18T01:34:48.069Z,15.97
2022-08-18T01:38:39.755Z,15.77
2022-08-18T01:42:24.773Z,17.52
2022-08-18T01:46:17.746Z,16.38
2022-08-18T01:49:57.053Z,23.80
2022-08-18T01:53:49.794Z,18.53
2022-08-18T01:57:34.733Z,18.67
2022-08-18T02:01:22.656Z,17.33
2022-08-18T02:05:24.768Z,17.27
2022-08-18T02:09:23.776Z,20.60
2022-08-18T02:13:08.763Z,21.60
2022-08-18T02:17:01.925Z,20.05
2022-08-18T02:20:47.750Z,20.73
2022-08-18T02:24:39.761Z,21.83
2022-08-18T02:28:18.012Z,20.07
2022-08-18T02:32:09.790Z,22.50
2022-08-18T02:36:00.801Z,23.90
2022-08-18T02:39:52.816Z,19.85
2022-08-18T02:43:33.830Z,20.95
2022-08-18T02:47:33.926Z,19.30
2022-08-18T02:51:20.798Z,19.53
2022-08-18T02:55:12.001Z,21.42
2022-08-18T02:59:19.780Z,21.48
2022-08-18T03:03:11.793Z,19.70
2022-08-18T03:06:56.766Z,23.27
2022-08-18T03:10:48.859Z,20.80
2022-08-18T03:14:27.341Z,19.10
2022-08-18T03:18:18.846Z,20.90
2022-08-18T03:22:03.038Z,21.15
2022-08-18T03:25:59.785Z,21.67
2022-08-18T03:29:44.814Z,22.30
2022-08-18T03:33:36.796Z,25.75
2022-08-18T03:37:24.830Z,19.90
2022-08-18T03:41:17.178Z,20.05
2022-08-18T03:45:17.753Z,23.77
2022-08-18T03:49:11.837Z,23.80
2022-08-18T03:52:56.830Z,21.85
2022-08-18T03:56:44.915Z,23.17
2022-08-18T04:00:29.786Z,25.92
2022-08-18T04:04:27.822Z,25.50
2022-08-18T04:08:07.019Z,22.25
2022-08-18T04:11:59.854Z,26.23
2022-08-18T04:15:44.834Z,27.90
2022-08-18T04:19:37.836Z,21.95
2022-08-18T04:23:23.881Z,27.17
2022-08-18T04:27:10.963Z,25.63
2022-08-18T04:30:55.821Z,26.17
2022-08-18T04:34:47.844Z,23.63
2022-08-18T04:38:32.834Z,27.60
2022-08-18T04:42:24.839Z,26.63
2022-08-18T04:46:03.283Z,25.48
2022-08-18T04:49:54.840Z,23.40
2022-08-18T04:53:51.856Z,24.40
2022-08-18T04:57:44.840Z,24.98
2022-08-18T05:01:35.927Z,23.37
2022-08-18T05:05:27.861Z,24.27
2022-08-18T05:09:16.632Z,27.27
2022-08-18T05:13:14.879Z,24.52
2022-08-18T05:16:59.893Z,26.05
2022-08-18T05:20:44.935Z,29.37
2022-08-18T05:24:37.167Z,25.27
2022-08-18T05:28:29.869Z,32.67
2022-08-18T05:32:08.747Z,30.02
2022-08-18T05:36:09.004Z,30.60
2022-08-18T05:40:11.628Z,29.03
2022-08-18T05:43:57.973Z,30.17
2022-08-18T05:47:42.889Z,29.00
2022-08-18T05:51:47.867Z,26.65
2022-08-18T05:55:55.873Z,27.55
2022-08-18T05:59:45.015Z,30.43
2022-08-18T06:03:55.903Z,24.05
2022-08-18T06:08:02.998Z,27.60
2022-08-18T06:11:41.245Z,22.92
2022-08-18T06:15:39.699Z,25.42
2022-08-18T06:19:40.965Z,22.90
2022-08-18T06:23:37.945Z,24.63
2022-08-18T06:27:40.921Z,23.35
2022-08-18T06:31:48.929Z,21.42
2022-08-18T06:35:54.902Z,26.90
2022-08-18T06:39:50.041Z,24.10
2022-08-18T06:43:38.898Z,28.60
2022-08-18T06:47:41.045Z,27.45
2022-08-18T06:51:27.957Z,23.02
2022-08-18T06:55:23.982Z,20.37
2022-08-18T06:59:40.912Z,25.33
2022-08-18T07:03:49.939Z,17.10
2022-08-18T07:07:54.102Z,23.55
2022-08-18T07:11:49.926Z,21.52
2022-08-18T07:15:38.924Z,18.63
2022-08-18T07:19:35.958Z,17.03
2022-08-18T07:23:13.997Z,21.17
2022-08-18T07:27:14.941Z,16.58
2022-08-18T07:31:15.900Z,17.77
2022-08-18T07:35:19.978Z,20.47
2022-08-18T07:39:20.946Z,19.45
2022-08-18T07:43:18.945Z,18.02
2022-08-18T07:47:24.955Z,17.23
2022-08-18T07:51:37.254Z,22.43
2022-08-18T07:55:41.920Z,16.30
2022-08-18T07:59:42.931Z,19.73
2022-08-18T08:04:07.986Z,15.13
2022-08-18T08:08:08.030Z,14.50
2022-08-18T08:12:11.962Z,15.73
2022-08-18T08:16:28.557Z,14.90
2022-08-18T08:20:22.961Z,16.27
2022-08-18T08:24:29.968Z,27.50
2022-08-18T08:28:44.970Z,16.10
2022-08-18T08:33:04.329Z,13.00
2022-08-18T08:37:00.973Z,16.83
2022-08-18T08:41:00.987Z,13.10
2022-08-18T08:44:59.793Z,12.98
2022-08-18T08:48:54.130Z,19.52
2022-08-18T08:52:58.041Z,18.00
2022-08-18T08:56:44.201Z,17.73
2022-08-18T09:00:37.029Z,16.90
2022-08-18T09:05:07.339Z,16.73
2022-08-18T09:09:04.026Z,16.83
2022-08-18T09:12:59.994Z,15.17
2022-08-18T09:17:33.965Z,16.20
2022-08-18T09:21:18.562Z,20.27
2022-08-18T09:25:11.003Z,18.13
2022-08-18T09:29:06.021Z,12.35
2022-08-18T09:33:18.735Z,16.02
2022-08-18T09:37:24.441Z,14.55
2022-08-18T09:41:39.028Z,13.73
2022-08-18T09:45:38.036Z,11.48
2022-08-18T09:50:37.346Z,12.10
2022-08-18T09:54:02.025Z,14.60
2022-08-18T09:58:22.944Z,19.00
2022-08-18T10:02:06.275Z,13.82
2022-08-18T10:06:27.446Z,14.05
2022-08-18T10:11:01.027Z,13.20
2022-08-18T10:14:44.062Z,16.08
2022-08-18T10:18:53.094Z,9.90
2022-08-18T10:22:53.163Z,13.37
2022-08-18T10:26:38.401Z,10.95
2022-08-18T10:30:36.244Z,12.48
2022-08-18T10:34:24.652Z,12.50
2022-08-18T10:38:31.032Z,13.77
2022-08-18T10:42:39.056Z,10.98
2022-08-18T10:46:39.497Z,13.65
2022-08-18T10:50:36.030Z,15.37
2022-08-18T10:55:00.116Z,15.85
2022-08-18T10:59:16.434Z,12.52
2022-08-18T11:03:50.601Z,14.53
2022-08-18T11:07:40.073Z,14.60
2022-08-18T11:11:38.652Z,12.98
2022-08-18T11:16:13.402Z,12.37
2022-08-18T11:19:52.570Z,11.63
2022-08-18T11:23:44.051Z,10.85
2022-08-18T11:27:35.081Z,12.85
2022-08-18T11:31:20.140Z,14.97
2022-08-18T11:43:50.828Z,12.80
2022-08-18T11:47:36.163Z,15.60
2022-08-18T11:51:28.123Z,13.38
2022-08-18T11:55:33.839Z,9.00
2022-08-18T11:59:53.485Z,11.75
2022-08-18T12:03:57.106Z,10.77
2022-08-18T12:07:57.713Z,10.52
2022-08-18T12:12:02.141Z,12.30
2022-08-18T12:19:55.105Z,10.32
2022-08-18T12:27:55.171Z,12.98
2022-08-18T12:31:42.807Z,11.50
2022-08-18T12:35:41.823Z,10.13
2022-08-18T12:39:21.070Z,10.73
2022-08-18T12:43:14.186Z,14.60
2022-08-18T12:46:59.820Z,11.95
2022-08-18T12:50:54.477Z,14.27
2022-08-18T12:54:55.389Z,10.95
2022-08-18T12:58:47.153Z,12.20
2022-08-18T13:02:32.174Z,10.23
2022-08-18T13:06:25.152Z,14.30
2022-08-18T13:10:35.763Z,12.30
2022-08-18T13:14:18.214Z,12.10
2022-08-18T13:18:03.156Z,10.23
2022-08-18T13:21:57.024Z,14.23
2022-08-18T13:25:39.404Z,13.15
2022-08-18T13:29:32.167Z,11.63
2022-08-18T13:33:34.977Z,13.57
2022-08-18T13:37:30.185Z,9.48
2022-08-18T13:41:23.464Z,11.30
2022-08-18T13:45:25.090Z,11.68
2022-08-18T13:49:04.489Z,11.07
2022-08-18T13:52:57.256Z,13.17
2022-08-18T13:56:51.590Z,12.68
2022-08-18T14:00:38.235Z,12.07
2022-08-18T14:04:30.181Z,13.13
2022-08-18T14:08:22.186Z,10.40
2022-08-18T14:12:23.311Z,10.32
2022-08-18T14:16:11.184Z,11.57
2022-08-18T14:20:31.214Z,9.87
2022-08-18T14:24:36.812Z,12.88
2022-08-18T14:28:28.197Z,12.15
2022-08-18T14:32:18.184Z,10.00
2022-08-18T14:36:29.673Z,12.15
2022-08-18T14:40:23.272Z,11.50
2022-08-18T14:44:13.287Z,10.15
2022-08-18T14:48:12.181Z,15.93
2022-08-18T14:52:13.953Z,10.15
2022-08-18T14:56:06.182Z,11.60
2022-08-18T14:59:45.268Z,10.53
2022-08-18T15:03:38.176Z,12.50
2022-08-18T15:07:24.234Z,12.13
2022-08-18T15:11:24.259Z,11.63
2022-08-18T15:15:42.058Z,12.73
2022-08-18T15:19:58.894Z,12.00
2022-08-18T15:24:04.186Z,11.52
2022-08-18T15:27:56.237Z,14.03
2022-08-18T15:31:59.793Z,12.90
2022-08-18T15:35:57.206Z,10.95
2022-08-18T15:39:35.337Z,13.70
2022-08-18T15:43:29.126Z,15.30
2022-08-18T15:47:20.930Z,11.20
2022-08-18T15:51:13.265Z,10.77
2022-08-18T15:55:02.636Z,12.40
2022-08-18T15:58:54.236Z,16.97
2022-08-18T16:02:39.293Z,8.57
2022-08-18T16:06:33.398Z,12.57
2022-08-18T16:10:14.297Z,9.45
2022-08-18T16:14:06.238Z,13.93
2022-08-18T16:17:51.532Z,11.40
2022-08-18T16:21:46.274Z,12.70
2022-08-18T16:25:31.311Z,16.30
2022-08-18T16:29:23.300Z,9.55
2022-08-18T16:33:05.491Z,10.67
2022-08-18T16:36:57.265Z,11.52
2022-08-18T16:40:42.311Z,10.65
2022-08-18T16:44:36.290Z,10.75
2022-08-18T16:48:16.953Z,9.80
2022-08-18T16:52:09.282Z,10.57
2022-08-18T16:55:58.291Z,11.38
2022-08-18T17:00:08.283Z,10.80
2022-08-18T17:04:14.700Z,10.00
2022-08-18T17:08:06.273Z,11.70
2022-08-18T17:11:52.362Z,10.68
2022-08-18T17:15:37.265Z,10.38
2022-08-18T17:19:29.286Z,10.30
2022-08-18T17:23:07.635Z,12.37
2022-08-18T17:27:26.970Z,9.40
2022-08-18T17:31:13.294Z,10.40
2022-08-18T17:35:10.398Z,11.50
2022-08-18T17:39:05.305Z,11.73
2022-08-18T17:42:57.348Z,12.07
2022-08-18T17:46:40.235Z,10.80
2022-08-18T17:51:00.406Z,15.15
2022-08-18T17:54:50.353Z,11.95
2022-08-18T17:58:38.019Z,12.55
2022-08-18T18:02:32.338Z,11.87
2022-08-18T18:06:46.182Z,15.83
2022-08-18T18:11:04.734Z,12.80
2022-08-18T18:14:44.389Z,22.13
2022-08-18T18:18:49.336Z,13.93
2022-08-18T18:22:38.339Z,12.07
2022-08-18T18:26:49.344Z,12.13
2022-08-18T18:30:48.330Z,12.10
2022-08-18T18:34:46.355Z,14.45
2022-08-18T18:38:52.350Z,12.50
2022-08-18T18:42:51.448Z,16.60
2022-08-18T18:46:51.370Z,14.27
2022-08-18T18:50:36.359Z,13.82
2022-08-18T18:55:02.425Z,13.45
2022-08-18T18:59:35.448Z,15.80
2022-08-18T19:03:34.444Z,13.20
2022-08-18T19:07:31.362Z,16.73
2022-08-18T19:11:32.372Z,13.27
2022-08-18T19:15:16.704Z,16.27
2022-08-18T19:19:36.213Z,15.60
2022-08-18T19:23:46.378Z,18.63
2022-08-18T19:27:49.699Z,16.90
2022-08-18T19:31:36.337Z,17.60
2022-08-18T19:35:38.370Z,15.73
2022-08-18T19:39:29.508Z,16.67
2022-08-18T19:43:40.362Z,15.83
2022-08-18T19:47:47.757Z,12.83
2022-08-18T19:51:48.390Z,14.93
2022-08-18T19:56:09.379Z,13.57
2022-08-18T20:00:46.461Z,14.88
2022-08-18T20:04:53.397Z,15.40
2022-08-18T20:09:12.874Z,13.20
2022-08-18T20:13:32.490Z,11.73
2022-08-18T20:17:28.570Z,15.45
2022-08-18T20:21:23.420Z,15.82
2022-08-18T20:25:12.428Z,13.80
2022-08-18T20:29:11.399Z,13.20
2022-08-18T20:33:27.421Z,12.60
2022-08-18T20:37:16.413Z,14.57
2022-08-18T20:41:39.191Z,13.15
2022-08-18T20:45:45.934Z,13.83
2022-08-18T20:50:09.408Z,13.60
2022-08-18T20:54:13.583Z,19.13
2022-08-18T20:58:38.428Z,18.25
2022-08-18T21:02:43.131Z,14.30
2022-08-18T21:06:44.457Z,13.47
2022-08-18T21:10:36.440Z,16.27
2022-08-18T21:14:42.428Z,17.33
2022-08-18T21:18:34.460Z,13.20
2022-08-18T21:22:26.430Z,13.88
2022-08-18T21:26:21.451Z,13.60
2022-08-18T21:30:10.513Z,15.40
2022-08-18T21:33:57.451Z,17.67
2022-08-18T21:37:54.464Z,17.52
2022-08-18T21:41:40.582Z,16.23
2022-08-18T21:45:35.441Z,14.63
2022-08-18T21:49:24.939Z,15.33
2022-08-18T21:53:25.438Z,17.15
2022-08-18T21:57:29.477Z,16.52
2022-08-18T22:01:40.442Z,15.43
2022-08-18T22:05:58.331Z,17.43
2022-08-18T22:10:47.460Z,17.07
2022-08-18T22:14:55.007Z,14.00
2022-08-18T22:18:45.530Z,14.15
2022-08-18T22:22:58.485Z,21.85
2022-08-18T22:26:47.477Z,17.47
2022-08-18T22:30:46.497Z,14.23
2022-08-18T22:34:40.485Z,17.30
2022-08-18T22:38:25.496Z,17.98
2022-08-18T22:42:17.484Z,15.95
2022-08-18T22:45:55.606Z,14.30
2022-08-18T22:49:47.491Z,14.43
2022-08-18T22:53:32.479Z,12.75
2022-08-18T22:57:31.509Z,15.00
2022-08-18T23:01:25.506Z,15.70
2022-08-18T23:05:10.488Z,17.87
2022-08-18T23:09:03.543Z,16.97
2022-08-18T23:12:48.505Z,16.10
2022-08-18T23:16:40.497Z,12.70
2022-08-18T23:20:22.834Z,17.63
2022-08-18T23:24:20.504Z,15.57
2022-08-18T23:28:06.509Z,17.53
2022-08-18T23:32:05.525Z,14.05
2022-08-18T23:36:04.509Z,17.50
2022-08-18T23:39:56.533Z,15.18
2022-08-18T23:43:42.520Z,14.37
2022-08-18T23:47:34.510Z,19.77
2022-08-18T23:51:13.089Z,16.33
2022-08-18T23:55:04.556Z,14.93
2022-08-18T23:58:57.073Z,17.30
